createdAt,value
2018-08-09T00:01:47.785Z,23.91
2018-08-09T00:04:17.564Z,23.98
2018-08-09T00:06:48.053Z,23.86
2018-08-09T00:09:17.806Z,23.78
2018-08-09T00:11:47.573Z,23.74
2018-08-09T00:14:18.352Z,23.81
2018-08-09T00:16:49.124Z,24.05
2018-08-09T00:19:18.773Z,24.06
2018-08-09T00:21:53.243Z,24.24
2018-08-09T00:24:24.108Z,24.32
2018-08-09T00:26:55.438Z,24.31
2018-08-09T00:29:25.199Z,24.30
2018-08-09T00:31:56.054Z,24.20
2018-08-09T00:34:27.412Z,24.22
2018-08-09T00:36:57.645Z,24.30
2018-08-09T00:39:31.863Z,24.39
2018-08-09T00:42:03.467Z,24.34
2018-08-09T00:44:33.704Z,24.27
2018-08-09T00:47:04.428Z,24.30
2018-08-09T00:49:34.248Z,24.39
2018-08-09T00:52:05.824Z,24.44
2018-08-09T00:54:36.141Z,24.52
2018-08-09T00:57:10.282Z,24.52
2018-08-09T00:59:39.920Z,24.34
2018-08-09T01:02:12.048Z,24.35
2018-08-09T01:04:42.286Z,24.43
2018-08-09T01:07:20.220Z,24.45
2018-08-09T01:09:53.719Z,24.52
2018-08-09T01:12:23.255Z,24.54
2018-08-09T01:14:52.590Z,24.40
2018-08-09T01:17:23.376Z,24.45
2018-08-09T01:19:54.207Z,24.45
2018-08-09T01:22:24.269Z,24.44
2018-08-09T01:24:53.699Z,24.42
2018-08-09T01:27:23.056Z,24.42
2018-08-09T01:29:52.560Z,24.34
2018-08-09T01:35:11.940Z,24.26
2018-08-09T01:37:41.402Z,24.26
2018-08-09T01:40:15.047Z,24.19
2018-08-09T01:42:55.314Z,24.17
2018-08-09T01:45:25.658Z,24.08
2018-08-09T01:47:55.193Z,23.98
2018-08-09T01:50:24.706Z,24.05
2018-08-09T01:52:54.062Z,24.16
2018-08-09T01:55:23.708Z,24.05
2018-08-09T01:57:53.083Z,23.99
2018-08-09T02:00:23.423Z,23.93
2018-08-09T02:02:54.195Z,23.89
2018-08-09T02:05:25.079Z,23.87
2018-08-09T02:07:55.635Z,23.76
2018-08-09T02:10:25.863Z,23.73
2018-08-09T02:12:56.062Z,23.69
2018-08-09T02:15:29.581Z,23.81
2018-08-09T02:17:58.718Z,23.87
2018-08-09T02:20:28.516Z,23.90
2018-08-09T02:22:57.982Z,23.80
2018-08-09T02:25:27.682Z,23.82
2018-08-09T02:27:57.199Z,23.88
2018-08-09T02:30:27.852Z,23.88
2018-08-09T02:32:57.358Z,23.95
2018-08-09T02:35:27.177Z,23.76
2018-08-09T02:37:56.548Z,23.74
2018-08-09T02:40:26.016Z,23.67
2018-08-09T02:42:58.701Z,23.59
2018-08-09T02:45:28.705Z,23.50
2018-08-09T02:47:58.244Z,23.41
2018-08-09T02:50:28.057Z,23.40
2018-08-09T02:52:57.765Z,23.41
2018-08-09T02:55:27.524Z,23.38
2018-08-09T02:57:58.850Z,23.50
2018-08-09T03:00:28.953Z,23.52
2018-08-09T03:02:58.870Z,23.55
2018-08-09T03:05:28.356Z,23.45
2018-08-09T03:07:58.232Z,23.38
2018-08-09T03:10:28.992Z,23.43
2018-08-09T03:12:58.288Z,23.36
2018-08-09T03:15:30.104Z,23.30
2018-08-09T03:18:01.418Z,23.33
2018-08-09T03:20:31.134Z,23.40
2018-08-09T03:23:03.620Z,23.42
2018-08-09T03:25:35.208Z,23.57
2018-08-09T03:28:05.237Z,23.69
2018-08-09T03:30:35.197Z,23.74
2018-08-09T03:33:06.483Z,23.60
2018-08-09T03:35:36.825Z,23.61
2018-08-09T03:38:06.824Z,23.67
2018-08-09T03:40:37.364Z,23.77
2018-08-09T03:43:07.214Z,23.76
2018-08-09T03:45:37.029Z,23.74
2018-08-09T03:48:06.467Z,23.79
2018-08-09T03:50:36.247Z,23.82
2018-08-09T03:53:05.760Z,23.82
2018-08-09T03:55:35.232Z,23.89
2018-08-09T03:58:04.741Z,23.97
2018-08-09T04:00:34.927Z,23.76
2018-08-09T04:03:04.316Z,23.72
2018-08-09T04:05:38.870Z,23.61
2018-08-09T04:08:08.330Z,23.62
2018-08-09T04:10:37.766Z,23.74
2018-08-09T04:13:07.030Z,23.73
2018-08-09T04:15:37.295Z,23.74
2018-08-09T04:18:06.663Z,23.68
2018-08-09T04:20:35.897Z,23.64
2018-08-09T04:23:05.635Z,23.54
2018-08-09T04:25:35.213Z,23.49
2018-08-09T04:28:05.644Z,23.51
2018-08-09T04:30:36.328Z,23.49
2018-08-09T04:33:06.236Z,23.52
2018-08-09T04:35:35.591Z,23.55
2018-08-09T04:38:05.573Z,23.48
2018-08-09T04:40:35.793Z,23.51
2018-08-09T04:43:06.244Z,23.64
2018-08-09T04:45:38.043Z,23.73
2018-08-09T04:48:13.928Z,23.73
2018-08-09T04:50:43.314Z,23.81
2018-08-09T04:53:12.749Z,23.90
2018-08-09T04:55:44.477Z,23.68
2018-08-09T04:58:14.069Z,23.82
2018-08-09T05:00:43.514Z,23.87
2018-08-09T05:03:17.595Z,24.06
2018-08-09T05:05:48.988Z,24.21
2018-08-09T05:08:20.768Z,24.36
2018-08-09T05:10:50.100Z,24.44
2018-08-09T05:13:20.911Z,24.53
2018-08-09T05:16:00.432Z,24.41
2018-08-09T05:18:31.112Z,24.24
2018-08-09T05:23:41.945Z,24.27
2018-08-09T05:26:11.825Z,24.24
2018-08-09T05:28:41.122Z,24.29
2018-08-09T05:31:10.701Z,24.35
2018-08-09T05:33:41.809Z,24.15
2018-08-09T05:36:11.180Z,23.81
2018-08-09T05:38:40.589Z,24.28
2018-08-09T05:41:10.556Z,24.22
2018-08-09T05:43:41.698Z,24.01
2018-08-09T05:46:11.542Z,23.62
2018-08-09T05:49:02.092Z,24.02
2018-08-09T05:51:32.240Z,24.19
2018-08-09T05:54:05.032Z,24.21
2018-08-09T05:56:38.982Z,24.30
2018-08-09T05:59:08.465Z,24.20
2018-08-09T06:01:40.395Z,24.24
2018-08-09T06:04:10.474Z,24.49
2018-08-09T06:06:41.754Z,24.81
2018-08-09T06:09:14.150Z,25.05
2018-08-09T06:11:43.853Z,25.31
2018-08-09T06:14:19.840Z,25.03
2018-08-09T06:16:49.693Z,25.15
2018-08-09T06:19:18.979Z,25.19
2018-08-09T06:21:54.236Z,25.36
2018-08-09T06:24:23.679Z,25.13
2018-08-09T06:26:53.039Z,25.12
2018-08-09T06:29:23.315Z,25.30
2018-08-09T06:31:53.799Z,25.46
2018-08-09T06:34:27.765Z,25.50
2018-08-09T06:36:59.161Z,25.43
2018-08-09T06:39:29.991Z,25.48
2018-08-09T06:42:00.956Z,25.50
2018-08-09T06:44:30.234Z,25.57
2018-08-09T06:47:01.274Z,25.47
2018-08-09T06:49:31.807Z,25.31
2018-08-09T06:52:14.468Z,25.36
2018-08-09T06:54:45.143Z,25.46
2018-08-09T06:57:15.627Z,25.76
2018-08-09T06:59:45.077Z,26.15
2018-08-09T07:02:15.426Z,26.53
2018-08-09T07:04:45.215Z,26.86
2018-08-09T07:07:14.805Z,26.64
2018-08-09T07:09:50.792Z,27.49
2018-08-09T07:12:21.279Z,27.83
2018-08-09T07:14:51.738Z,27.89
2018-08-09T07:17:22.952Z,28.39
2018-08-09T07:19:54.920Z,28.85
2018-08-09T07:22:28.404Z,28.54
2018-08-09T07:24:57.798Z,28.23
2018-08-09T07:27:27.564Z,28.23
2018-08-09T07:30:04.436Z,28.08
2018-08-09T07:32:36.116Z,27.75
2018-08-09T07:35:06.296Z,27.44
2018-08-09T07:37:36.179Z,27.28
2018-08-09T07:40:14.418Z,27.42
2018-08-09T07:42:50.317Z,27.56
2018-08-09T07:45:20.466Z,27.70
2018-08-09T07:47:50.565Z,28.02
2018-08-09T07:50:27.504Z,28.25
2018-08-09T07:53:03.248Z,27.99
2018-08-09T07:55:40.273Z,28.02
2018-08-09T07:58:19.113Z,27.94
2018-08-09T08:00:52.833Z,27.92
2018-08-09T08:03:43.067Z,27.95
2018-08-09T08:09:06.336Z,28.45
2018-08-09T08:11:36.946Z,28.37
2018-08-09T08:14:07.088Z,28.35
2018-08-09T08:16:38.257Z,28.43
2018-08-09T08:19:15.424Z,28.28
2018-08-09T08:21:45.877Z,28.35
2018-08-09T08:24:16.298Z,28.06
2018-08-09T08:29:30.909Z,28.34
2018-08-09T08:32:10.700Z,28.19
2018-08-09T08:34:47.593Z,28.21
2018-08-09T08:37:17.746Z,28.33
2018-08-09T08:39:50.748Z,28.52
2018-08-09T08:42:20.243Z,28.61
2018-08-09T08:44:49.994Z,28.70
2018-08-09T08:47:23.979Z,28.58
2018-08-09T08:49:55.314Z,28.38
2018-08-09T08:52:25.323Z,28.22
2018-08-09T08:54:56.226Z,28.17
2018-08-09T08:57:30.240Z,28.32
2018-08-09T09:00:01.872Z,28.42
2018-08-09T09:02:32.292Z,28.39
2018-08-09T09:05:08.908Z,28.34
2018-08-09T09:07:40.311Z,28.44
2018-08-09T09:10:18.990Z,28.42
2018-08-09T09:13:02.619Z,28.45
2018-08-09T09:15:33.033Z,28.74
2018-08-09T09:18:08.421Z,28.92
2018-08-09T09:20:47.281Z,29.06
2018-08-09T09:23:21.444Z,28.88
2018-08-09T09:25:57.241Z,29.57
2018-08-09T09:28:28.298Z,29.77
2018-08-09T09:31:00.683Z,30.27
2018-08-09T09:33:34.760Z,30.32
2018-08-09T09:36:07.863Z,30.30
2018-08-09T09:38:39.996Z,30.31
2018-08-09T09:42:13.379Z,30.27
2018-08-09T09:44:50.802Z,30.08
2018-08-09T09:47:28.747Z,30.78
2018-08-09T09:50:01.752Z,31.25
2018-08-09T09:52:40.476Z,31.48
2018-08-09T09:55:13.569Z,31.67
2018-08-09T10:00:25.958Z,32.32
2018-08-09T10:03:03.152Z,32.66
2018-08-09T10:05:35.657Z,32.90
2018-08-09T10:08:13.242Z,33.22
2018-08-09T10:10:44.394Z,32.91
2018-08-09T10:13:15.413Z,33.15
2018-08-09T10:15:47.884Z,33.59
2018-08-09T10:18:29.104Z,33.76
2018-08-09T10:23:38.576Z,34.26
2018-08-09T10:26:10.507Z,34.52
2018-08-09T10:28:40.296Z,34.81
2018-08-09T10:31:10.803Z,34.86
2018-08-09T10:33:41.870Z,35.11
2018-08-09T10:36:12.047Z,35.13
2018-08-09T10:39:01.276Z,34.65
2018-08-09T10:41:31.942Z,35.07
2018-08-09T10:44:06.158Z,34.74
2018-08-09T10:46:37.533Z,34.96
2018-08-09T10:49:08.888Z,35.40
2018-08-09T10:51:44.988Z,35.60
2018-08-09T10:54:17.876Z,34.98
2018-08-09T10:56:55.796Z,34.83
2018-08-09T10:59:26.582Z,34.86
2018-08-09T11:02:10.208Z,35.03
2018-08-09T11:04:39.947Z,35.16
2018-08-09T11:07:11.334Z,35.15
2018-08-09T11:09:40.638Z,34.90
2018-08-09T11:12:11.385Z,34.85
2018-08-09T11:14:42.689Z,34.50
2018-08-09T11:17:14.365Z,34.49
2018-08-09T11:19:44.295Z,34.02
2018-08-09T11:22:18.086Z,34.22
2018-08-09T11:24:48.008Z,34.06
2018-08-09T11:27:18.325Z,34.28
2018-08-09T11:29:47.789Z,34.16
2018-08-09T11:32:20.836Z,34.18
2018-08-09T11:34:54.230Z,34.19
2018-08-09T11:37:25.688Z,34.44
2018-08-09T11:39:57.876Z,34.31
2018-08-09T11:42:27.485Z,34.33
2018-08-09T11:44:58.572Z,34.07
2018-08-09T11:47:28.229Z,34.30
2018-08-09T11:49:59.210Z,34.44
2018-08-09T11:52:29.322Z,34.31
2018-08-09T11:54:59.346Z,34.12
2018-08-09T11:57:31.792Z,33.89
2018-08-09T12:00:01.942Z,33.51
2018-08-09T12:02:35.960Z,33.54
2018-08-09T12:05:06.999Z,33.03
2018-08-09T12:07:38.469Z,33.35
2018-08-09T12:10:10.484Z,33.49
2018-08-09T12:12:40.347Z,33.31
2018-08-09T12:17:52.240Z,33.54
2018-08-09T12:20:22.574Z,33.67
2018-08-09T12:22:52.349Z,33.83
2018-08-09T12:25:23.616Z,33.44
2018-08-09T12:27:53.537Z,33.39
2018-08-09T12:30:26.104Z,33.51
2018-08-09T12:32:55.457Z,33.52
2018-08-09T12:35:26.234Z,33.44
2018-08-09T12:37:55.873Z,33.29
2018-08-09T12:40:34.309Z,33.03
2018-08-09T12:43:04.364Z,32.52
2018-08-09T12:45:35.285Z,32.74
2018-08-09T12:48:07.678Z,32.90
2018-08-09T12:50:38.928Z,32.75
2018-08-09T12:53:09.031Z,32.58
2018-08-09T12:55:39.049Z,32.19
2018-08-09T12:58:11.255Z,31.69
2018-08-09T13:00:56.032Z,32.05
2018-08-09T13:03:30.380Z,32.05
2018-08-09T13:06:00.115Z,31.78
2018-08-09T13:09:27.499Z,31.64
2018-08-09T13:12:13.845Z,31.75
2018-08-09T13:14:45.576Z,31.49
2018-08-09T13:17:17.267Z,31.56
2018-08-09T13:22:22.594Z,31.29
2018-08-09T13:24:55.111Z,31.22
2018-08-09T13:27:26.256Z,31.00
2018-08-09T13:29:59.318Z,30.80
2018-08-09T13:32:30.764Z,30.87
2018-08-09T13:35:03.003Z,30.68
2018-08-09T13:37:35.370Z,30.80
2018-08-09T13:40:06.636Z,30.80
2018-08-09T13:42:42.638Z,30.86
2018-08-09T13:45:24.666Z,30.84
2018-08-09T13:47:55.500Z,30.68
2018-08-09T13:50:31.575Z,30.39
2018-08-09T13:53:06.636Z,30.35
2018-08-09T13:55:42.273Z,30.41
2018-08-09T13:58:16.357Z,30.06
2018-08-09T14:00:53.615Z,29.64
2018-08-09T14:03:35.376Z,29.45
2018-08-09T14:06:23.319Z,29.20
2018-08-09T14:08:58.452Z,29.72
2018-08-09T14:11:28.744Z,30.07
2018-08-09T14:13:59.087Z,29.98
2018-08-09T14:16:39.963Z,30.13
2018-08-09T14:19:10.251Z,29.96
2018-08-09T14:21:42.508Z,28.89
2018-08-09T14:24:12.914Z,29.16
2018-08-09T14:26:42.859Z,29.06
2018-08-09T14:29:16.741Z,28.62
2018-08-09T14:31:48.373Z,28.30
2018-08-09T14:34:18.809Z,28.74
2018-08-09T14:36:53.153Z,28.35
2018-08-09T14:39:24.258Z,28.33
2018-08-09T14:41:53.688Z,28.39
2018-08-09T14:44:23.082Z,28.78
2018-08-09T14:46:53.784Z,28.93
2018-08-09T14:49:24.623Z,29.44
2018-08-09T14:51:58.218Z,29.66
2018-08-09T14:54:31.408Z,29.52
2018-08-09T14:57:03.568Z,29.45
2018-08-09T14:59:34.810Z,29.50
2018-08-09T15:02:08.509Z,29.41
2018-08-09T15:04:40.649Z,29.08
2018-08-09T15:07:11.790Z,28.80
2018-08-09T15:09:43.193Z,28.86
2018-08-09T15:12:12.942Z,28.99
2018-08-09T15:14:43.855Z,28.84
2018-08-09T15:17:14.481Z,28.79
2018-08-09T15:19:44.012Z,28.64
2018-08-09T15:22:14.673Z,28.65
2018-08-09T15:24:47.476Z,28.86
2018-08-09T15:27:18.058Z,28.10
2018-08-09T15:29:49.004Z,28.54
2018-08-09T15:32:21.086Z,28.80
2018-08-09T15:34:51.836Z,28.94
2018-08-09T15:37:22.203Z,29.08
2018-08-09T15:39:52.840Z,29.15
2018-08-09T15:42:24.395Z,28.78
2018-08-09T15:45:00.773Z,29.01
2018-08-09T15:47:33.408Z,29.18
2018-08-09T15:50:07.291Z,28.75
2018-08-09T15:52:38.952Z,28.48
2018-08-09T15:55:10.241Z,28.84
2018-08-09T15:57:42.250Z,29.05
2018-08-09T16:00:22.415Z,29.19
2018-08-09T16:02:59.898Z,29.39
2018-08-09T16:05:36.644Z,29.38
2018-08-09T16:08:12.790Z,29.19
2018-08-09T16:10:43.913Z,29.09
2018-08-09T16:13:13.902Z,28.75
2018-08-09T16:15:44.692Z,28.30
2018-08-09T16:18:15.568Z,28.77
2018-08-09T16:20:52.196Z,28.73
2018-08-09T16:23:28.632Z,28.29
2018-08-09T16:25:59.788Z,28.23
2018-08-09T16:28:41.892Z,28.59
2018-08-09T16:31:12.264Z,28.85
2018-08-09T16:33:46.061Z,28.81
2018-08-09T16:36:20.312Z,28.79
2018-08-09T16:39:04.649Z,28.82
2018-08-09T16:41:34.203Z,28.97
2018-08-09T16:44:05.042Z,28.90
2018-08-09T16:46:34.752Z,29.00
2018-08-09T16:49:07.052Z,28.61
2018-08-09T16:51:39.917Z,28.73
2018-08-09T16:54:14.322Z,28.33
2018-08-09T16:56:51.318Z,28.36
2018-08-09T16:59:26.383Z,28.20
2018-08-09T17:02:01.403Z,28.50
2018-08-09T17:04:32.075Z,28.45
2018-08-09T17:07:02.329Z,28.65
2018-08-09T17:09:32.524Z,28.82
2018-08-09T17:12:13.584Z,28.41
2018-08-09T17:14:45.413Z,28.41
2018-08-09T17:17:19.020Z,28.27
2018-08-09T17:19:51.558Z,28.32
2018-08-09T17:22:23.424Z,28.60
2018-08-09T17:24:53.571Z,28.55
2018-08-09T17:27:23.704Z,28.56
2018-08-09T17:29:55.534Z,28.57
2018-08-09T17:35:13.825Z,28.48
2018-08-09T17:37:50.688Z,28.21
2018-08-09T17:40:35.626Z,28.09
2018-08-09T17:43:25.488Z,28.07
2018-08-09T17:46:03.691Z,27.82
2018-08-09T17:48:45.002Z,26.82
2018-08-09T17:54:00.008Z,26.01
2018-08-09T17:56:33.649Z,25.19
2018-08-09T17:59:12.924Z,24.95
2018-08-09T18:01:53.146Z,24.71
2018-08-09T18:04:27.039Z,24.45
2018-08-09T18:06:59.468Z,24.44
2018-08-09T18:09:31.330Z,24.47
2018-08-09T18:12:01.635Z,24.30
2018-08-09T18:14:33.472Z,24.45
2018-08-09T18:17:07.296Z,24.42
2018-08-09T18:19:43.082Z,24.31
2018-08-09T18:22:18.176Z,24.26
2018-08-09T18:24:51.247Z,24.30
2018-08-09T18:27:24.321Z,24.37
2018-08-09T18:29:53.820Z,24.49
2018-08-09T18:32:26.585Z,24.24
2018-08-09T18:35:09.843Z,24.14
2018-08-09T18:37:50.622Z,24.24
2018-08-09T18:43:04.889Z,24.37
2018-08-09T18:45:44.020Z,24.42
2018-08-09T18:48:16.569Z,24.40
2018-08-09T18:50:48.732Z,24.21
2018-08-09T18:53:22.499Z,24.14
2018-08-09T18:55:57.186Z,24.25
2018-08-09T18:58:31.268Z,24.12
2018-08-09T19:01:03.742Z,24.48
2018-08-09T19:03:36.688Z,24.24
2018-08-09T19:06:08.936Z,24.26
2018-08-09T19:08:46.950Z,24.26
2018-08-09T19:11:22.614Z,24.19
2018-08-09T19:13:53.392Z,24.01
2018-08-09T19:16:24.824Z,24.00
2018-08-09T19:18:55.253Z,24.06
2018-08-09T19:21:32.101Z,24.01
2018-08-09T19:24:05.902Z,23.97
2018-08-09T19:26:35.257Z,23.97
2018-08-09T19:29:07.333Z,23.99
2018-08-09T19:31:42.040Z,23.92
2018-08-09T19:34:14.313Z,23.90
2018-08-09T19:36:46.274Z,23.72
2018-08-09T19:40:24.825Z,23.63
2018-08-09T19:42:54.879Z,23.60
2018-08-09T19:45:26.370Z,23.56
2018-08-09T19:48:08.573Z,23.48
2018-08-09T19:50:43.252Z,23.53
2018-08-09T19:53:15.629Z,23.36
2018-08-09T19:55:48.348Z,23.37
2018-08-09T19:58:24.586Z,23.36
2018-08-09T20:00:55.677Z,23.24
2018-08-09T20:03:52.586Z,23.23
2018-08-09T20:06:22.572Z,23.37
2018-08-09T20:08:55.162Z,23.38
2018-08-09T20:11:26.229Z,23.35
2018-08-09T20:14:07.304Z,23.25
2018-08-09T20:16:38.991Z,23.08
2018-08-09T20:19:11.744Z,23.09
2018-08-09T20:21:50.143Z,23.11
2018-08-09T20:24:24.291Z,23.10
2018-08-09T20:26:57.621Z,23.04
2018-08-09T20:29:35.936Z,23.01
2018-08-09T20:32:12.511Z,22.85
2018-08-09T20:34:49.111Z,22.80
2018-08-09T20:37:25.961Z,22.93
2018-08-09T20:40:22.497Z,22.83
2018-08-09T20:42:57.657Z,22.73
2018-08-09T20:45:42.171Z,22.65
2018-08-09T20:48:26.689Z,22.55
2018-08-09T20:50:59.689Z,22.33
2018-08-09T20:53:46.281Z,22.20
2018-08-09T20:56:27.928Z,22.10
2018-08-09T20:59:04.507Z,22.04
2018-08-09T21:01:42.774Z,21.85
2018-08-09T21:04:20.229Z,21.76
2018-08-09T21:06:53.435Z,21.48
2018-08-09T21:09:25.373Z,21.12
2018-08-09T21:11:56.912Z,21.00
2018-08-09T21:14:44.262Z,21.00
2018-08-09T21:20:14.632Z,20.67
2018-08-09T21:22:46.711Z,20.57
2018-08-09T21:25:18.738Z,20.55
2018-08-09T21:27:55.723Z,20.62
2018-08-09T21:30:28.315Z,20.69
2018-08-09T21:33:04.317Z,20.32
2018-08-09T21:35:45.503Z,20.61
2018-08-09T21:38:32.625Z,20.66
2018-08-09T21:41:05.836Z,20.69
2018-08-09T21:43:35.899Z,20.69
2018-08-09T21:46:06.087Z,20.70
2018-08-09T21:48:36.611Z,20.70
2018-08-09T21:51:07.463Z,20.78
2018-08-09T21:53:44.139Z,20.76
2018-08-09T21:56:18.641Z,20.69
2018-08-09T21:58:53.735Z,20.57
2018-08-09T22:01:27.855Z,20.67
2018-08-09T22:04:04.592Z,20.60
2018-08-09T22:06:42.759Z,20.56
2018-08-09T22:09:25.708Z,20.24
2018-08-09T22:13:10.952Z,20.13
2018-08-09T22:15:52.368Z,19.93
2018-08-09T22:18:31.351Z,19.73
2018-08-09T22:21:10.348Z,19.75
2018-08-09T22:23:59.555Z,19.64
2018-08-09T22:26:47.490Z,19.77
2018-08-09T22:29:37.456Z,19.77
2018-08-09T22:32:12.438Z,19.75
2018-08-09T22:34:58.952Z,19.68
2018-08-09T22:37:40.494Z,19.78
2018-08-09T22:40:14.314Z,19.71
2018-08-09T22:42:49.294Z,19.57
2018-08-09T22:45:21.782Z,19.53
2018-08-09T22:47:53.945Z,19.59
2018-08-09T22:50:25.425Z,19.69
2018-08-09T22:52:59.936Z,19.73
2018-08-09T22:55:30.399Z,19.70
2018-08-09T22:58:01.624Z,19.75
2018-08-09T23:00:34.724Z,19.75
2018-08-09T23:03:04.745Z,19.62
2018-08-09T23:05:34.356Z,19.59
2018-08-09T23:08:05.663Z,19.48
2018-08-09T23:10:48.140Z,19.70
2018-08-09T23:13:20.642Z,19.64
2018-08-09T23:15:50.989Z,19.71
2018-08-09T23:18:21.866Z,19.75
2018-08-09T23:23:52.063Z,19.74
2018-08-09T23:26:22.718Z,19.73
2018-08-09T23:28:53.797Z,19.80
2018-08-09T23:31:23.787Z,19.79
2018-08-09T23:33:53.403Z,19.96
2018-08-09T23:36:23.433Z,20.01
2018-08-09T23:38:54.692Z,19.97
2018-08-09T23:41:24.029Z,19.93
2018-08-09T23:43:53.981Z,19.88
2018-08-09T23:46:26.326Z,19.80
2018-08-09T23:48:56.774Z,19.78
2018-08-09T23:51:30.060Z,19.84
2018-08-09T23:54:00.521Z,19.86
2018-08-09T23:56:33.442Z,19.61
2018-08-09T23:59:09.876Z,19.70
